Time;durP1;ratioP1;P1;durP2;ratioP2;P2;SDS_P1;SDS_P2;PMS_P1;PMS_P2;Temp;Humidity;BMP_temperature;BMP_pressure;BME280_temperature;BME280_humidity;BME280_pressure;Samples;Min_cycle;Max_cycle;Signal;HPM_P1;HPM_P2
2023/12/16 00:00:42;;;;;;;0.70;0.60;;;18.70;53.20;;;;;;8363081;28;20086;-50
2023/12/16 00:04:43;;;;;;;0.40;0.40;;;18.70;53.20;;;;;;8361870;28;20028;-51
2023/12/16 00:08:44;;;;;;;0.50;0.50;;;18.60;53.20;;;;;;8362916;28;20025;-50
2023/12/16 00:12:44;;;;;;;0.47;0.47;;;18.70;53.20;;;;;;8362477;28;20055;-50
2023/12/16 00:16:45;;;;;;;0.65;0.52;;;18.70;53.20;;;;;;8362801;28;20040;-50
2023/12/16 00:20:46;;;;;;;0.40;0.40;;;18.70;53.20;;;;;;8361921;28;20029;-48
2023/12/16 00:24:47;;;;;;;0.65;0.50;;;18.70;53.20;;;;;;8362209;28;20040;-48
2023/12/16 00:28:47;;;;;;;0.65;0.50;;;18.70;53.20;;;;;;8362094;28;20479;-48
2023/12/16 00:32:48;;;;;;;0.68;0.60;;;18.70;53.20;;;;;;8361079;28;20040;-49
2023/12/16 00:36:49;;;;;;;0.60;0.60;;;18.70;53.20;;;;;;8361598;28;20049;-50
2023/12/16 00:40:49;;;;;;;0.45;0.45;;;18.60;53.20;;;;;;8361598;28;20029;-48
2023/12/16 00:44:50;;;;;;;0.50;0.50;;;18.70;53.20;;;;;;8361877;28;20037;-49
2023/12/16 00:48:51;;;;;;;0.70;0.70;;;18.70;53.20;;;;;;8361569;28;20041;-49
2023/12/16 00:52:52;;;;;;;0.60;0.60;;;18.70;53.20;;;;;;8361367;28;20174;-48
2023/12/16 00:56:52;;;;;;;0.52;0.45;;;18.60;53.10;;;;;;8361340;28;20033;-48
2023/12/16 01:00:54;;;;;;;0.50;0.50;;;18.60;53.10;;;;;;8361142;28;20521;-48
2023/12/16 01:04:54;;;;;;;0.63;0.50;;;18.60;53.10;;;;;;8361245;28;20384;-48
2023/12/16 01:08:55;;;;;;;0.73;0.73;;;18.60;53.10;;;;;;8361075;28;20025;-48
2023/12/16 01:12:56;;;;;;;0.60;0.60;;;18.60;53.40;;;;;;8361095;28;20380;-51
2023/12/16 01:16:57;;;;;;;0.68;0.60;;;18.60;53.20;;;;;;8360958;28;20025;-50
2023/12/16 01:20:58;;;;;;;;;;;18.60;53.10;;;;;;8361068;28;20044;-47
2023/12/16 01:24:58;;;;;;;0.90;0.50;;;18.60;53.10;;;;;;8360658;28;19908;-49
2023/12/16 01:28:59;;;;;;;0.50;0.50;;;18.60;53.20;;;;;;8360595;28;20037;-48
2023/12/16 01:33:00;;;;;;;0.75;0.60;;;18.60;53.20;;;;;;8360541;28;20037;-52
2023/12/16 01:37:00;;;;;;;0.60;0.60;;;18.60;53.20;;;;;;8360174;28;20045;-49
2023/12/16 01:41:01;;;;;;;0.95;0.80;;;18.60;53.10;;;;;;8360010;28;20386;-52
2023/12/16 01:45:03;;;;;;;0.68;0.68;;;18.60;53.20;;;;;;8360259;28;20605;-51
2023/12/16 01:49:04;;;;;;;0.52;0.52;;;18.60;53.20;;;;;;8360090;28;20079;-50
2023/12/16 01:53:06;;;;;;;0.70;0.60;;;18.60;53.10;;;;;;8360168;28;20041;-51
2023/12/16 01:57:08;;;;;;;0.90;0.80;;;18.60;53.10;;;;;;8359943;28;20482;-53
2023/12/16 02:01:09;;;;;;;0.80;0.65;;;18.60;53.20;;;;;;8359703;28;20095;-50
2023/12/16 02:05:09;;;;;;;0.85;0.70;;;18.60;53.10;;;;;;8359804;28;20025;-51
2023/12/16 02:09:13;;;;;;;0.80;0.70;;;18.60;53.60;;;;;;8359965;28;20497;-50
2023/12/16 02:13:14;;;;;;;0.80;0.70;;;18.60;53.10;;;;;;8358517;28;20143;-52
2023/12/16 02:17:14;;;;;;;0.80;0.73;;;18.60;53.10;;;;;;8359784;28;20025;-52
2023/12/16 02:21:15;;;;;;;0.75;0.50;;;18.60;53.10;;;;;;8359593;28;20033;-51
2023/12/16 02:25:17;;;;;;;0.60;0.60;;;18.60;53.20;;;;;;8358570;28;20040;-52
2023/12/16 02:29:18;;;;;;;1.20;0.90;;;18.50;53.20;;;;;;8359486;28;20033;-51
2023/12/16 02:33:18;;;;;;;0.65;0.52;;;18.60;53.20;;;;;;8359508;28;20037;-52
2023/12/16 02:37:19;;;;;;;0.80;0.70;;;18.50;53.20;;;;;;8357887;28;20041;-51
2023/12/16 02:41:21;;;;;;;0.60;0.60;;;18.60;53.20;;;;;;8359742;28;20437;-50
2023/12/16 02:45:24;;;;;;;0.60;0.60;;;18.60;53.20;;;;;;8365818;28;20540;-48
2023/12/16 02:49:27;;;;;;;1.00;0.77;;;18.60;53.20;;;;;;8365295;28;20033;-50
2023/12/16 02:53:27;;;;;;;0.77;0.77;;;18.60;53.20;;;;;;8365267;28;20479;-48
2023/12/16 02:57:28;;;;;;;0.65;0.60;;;18.50;53.20;;;;;;8364894;28;20706;-47
2023/12/16 03:01:29;;;;;;;0.50;0.50;;;18.60;53.20;;;;;;8364793;28;20463;-47
2023/12/16 03:05:29;;;;;;;0.60;0.60;;;18.60;53.20;;;;;;8364811;28;20047;-48
2023/12/16 03:09:30;;;;;;;0.55;0.55;;;18.60;53.20;;;;;;8364821;28;20698;-48
2023/12/16 03:13:31;;;;;;;1.13;0.70;;;18.50;53.10;;;;;;8364558;28;20040;-50
2023/12/16 03:17:32;;;;;;;0.77;0.60;;;18.50;53.10;;;;;;8364347;28;20021;-47
2023/12/16 03:21:32;;;;;;;0.88;0.60;;;18.50;53.10;;;;;;8364314;28;20509;-48
2023/12/16 03:25:33;;;;;;;0.75;0.68;;;18.50;53.10;;;;;;8364265;28;20037;-49
2023/12/16 03:29:34;;;;;;;0.77;0.75;;;18.50;53.10;;;;;;8364058;28;20067;-48
2023/12/16 03:33:35;;;;;;;0.82;0.68;;;18.60;53.10;;;;;;8362716;28;20037;-47
2023/12/16 03:37:35;;;;;;;0.85;0.80;;;18.50;53.10;;;;;;8363502;28;20503;-49
2023/12/16 03:41:36;;;;;;;0.85;0.80;;;18.50;53.10;;;;;;8363715;28;20383;-47
2023/12/16 03:45:37;;;;;;;0.90;0.75;;;18.50;53.10;;;;;;8363664;28;20048;-48
2023/12/16 03:49:37;;;;;;;0.60;0.60;;;18.50;53.10;;;;;;8363604;28;20147;-47
2023/12/16 03:53:39;;;;;;;1.30;0.88;;;18.50;53.10;;;;;;8361067;28;20447;-51
2023/12/16 03:57:39;;;;;;;;;;;18.50;53.10;;;;;;8362103;28;20442;-50
2023/12/16 04:01:44;;;;;;;0.67;0.60;;;18.50;53.10;;;;;;8363176;28;20014;-50
2023/12/16 04:05:45;;;;;;;1.15;1.00;;;18.50;53.10;;;;;;8362856;28;20057;-51
2023/12/16 04:09:46;;;;;;;0.70;0.70;;;18.50;53.10;;;;;;8362997;28;20044;-52
2023/12/16 04:13:48;;;;;;;;;;;18.50;53.10;;;;;;8363186;28;20541;-50
2023/12/16 04:17:49;;;;;;;0.75;0.75;;;18.50;53.10;;;;;;8362749;28;19908;-50
2023/12/16 04:21:50;;;;;;;1.00;0.73;;;18.50;53.10;;;;;;8362477;28;20055;-50
2023/12/16 04:25:50;;;;;;;1.80;0.90;;;18.50;53.10;;;;;;8362392;28;20040;-50
2023/12/16 04:29:51;;;;;;;1.08;0.90;;;18.50;53.10;;;;;;8362339;28;20040;-50
2023/12/16 04:33:54;;;;;;;0.70;0.70;;;18.50;53.10;;;;;;8362150;28;20099;-51
2023/12/16 04:37:55;;;;;;;0.63;0.60;;;18.50;53.10;;;;;;8361625;28;20049;-49
2023/12/16 04:41:55;;;;;;;0.95;0.70;;;18.50;53.00;;;;;;8361772;28;20032;-50
2023/12/16 04:45:56;;;;;;;0.85;0.85;;;18.50;53.10;;;;;;8361772;28;20453;-50
2023/12/16 04:49:57;;;;;;;0.68;0.68;;;18.50;53.10;;;;;;8361360;28;20072;-49
2023/12/16 04:53:58;;;;;;;1.02;1.00;;;18.50;53.10;;;;;;8361248;28;20390;-53
2023/12/16 04:57:59;;;;;;;1.38;0.68;;;18.50;53.10;;;;;;8361229;28;20087;-52
2023/12/16 05:01:59;;;;;;;0.90;0.80;;;18.50;53.10;;;;;;8361149;28;20398;-55
2023/12/16 05:06:00;;;;;;;0.70;0.70;;;18.50;53.10;;;;;;8360619;28;20470;-54
2023/12/16 05:10:01;;;;;;;0.90;0.85;;;18.50;53.10;;;;;;8360917;28;20044;-54
2023/12/16 05:14:01;;;;;;;1.02;0.80;;;18.50;53.10;;;;;;8361717;28;20029;-54
2023/12/16 05:18:02;;;;;;;0.88;0.80;;;18.50;53.10;;;;;;8360909;28;20029;-52
2023/12/16 05:22:03;;;;;;;0.88;0.73;;;18.50;53.10;;;;;;8360536;28;20044;-54
2023/12/16 05:26:04;;;;;;;1.80;1.02;;;18.50;53.10;;;;;;8360333;28;20168;-54
2023/12/16 05:30:05;;;;;;;0.93;0.93;;;18.50;53.10;;;;;;8359148;28;20041;-55
2023/12/16 05:34:06;;;;;;;0.95;0.63;;;18.50;53.10;;;;;;8360368;28;20044;-55
2023/12/16 05:38:06;;;;;;;0.98;0.80;;;18.50;53.00;;;;;;8360517;28;20037;-55
2023/12/16 05:42:07;;;;;;;0.63;0.63;;;18.50;53.10;;;;;;8360127;28;20041;-53
2023/12/16 05:46:08;;;;;;;0.57;0.55;;;18.50;53.00;;;;;;8360569;28;20317;-54
2023/12/16 05:50:09;;;;;;;0.82;0.80;;;18.50;53.00;;;;;;8358747;28;20047;-54
2023/12/16 05:54:09;;;;;;;1.00;0.90;;;18.50;53.00;;;;;;8358667;28;20044;-53
2023/12/16 05:58:10;;;;;;;0.60;0.60;;;18.50;53.00;;;;;;8359831;28;20079;-54
2023/12/16 06:02:11;;;;;;;0.68;0.63;;;18.50;53.00;;;;;;8359779;28;20045;-54
2023/12/16 06:06:11;;;;;;;1.13;0.80;;;18.50;53.00;;;;;;8359704;28;20037;-53
2023/12/16 06:10:12;;;;;;;0.98;0.93;;;18.50;53.00;;;;;;8359549;28;20445;-54
2023/12/16 06:14:13;;;;;;;1.77;0.70;;;18.50;53.00;;;;;;8358882;28;20041;-54
2023/12/16 06:18:14;;;;;;;1.10;0.70;;;18.50;53.00;;;;;;8363229;28;20037;-54
2023/12/16 06:22:14;;;;;;;1.23;0.80;;;18.50;52.80;;;;;;8365940;28;20029;-55
2023/12/16 06:26:15;;;;;;;0.88;0.88;;;18.60;52.70;;;;;;8366002;28;20071;-54
2023/12/16 06:30:16;;;;;;;1.08;0.98;;;18.70;52.50;;;;;;8365729;28;20033;-54
2023/12/16 06:34:18;;;;;;;0.63;0.60;;;18.70;52.40;;;;;;8365757;28;20056;-53
2023/12/16 06:38:18;;;;;;;0.60;0.40;;;18.70;52.30;;;;;;8365575;28;20083;-53
2023/12/16 06:42:19;;;;;;;1.10;0.88;;;18.80;52.30;;;;;;8366053;28;20041;-54
2023/12/16 06:46:20;;;;;;;1.25;1.05;;;18.80;52.30;;;;;;8365466;28;20067;-53
2023/12/16 06:50:20;;;;;;;0.80;0.70;;;18.80;52.20;;;;;;8365369;28;20033;-54
2023/12/16 06:54:22;;;;;;;0.80;0.70;;;18.80;52.20;;;;;;8363898;28;20116;-54
2023/12/16 06:58:22;;;;;;;0.90;0.80;;;18.80;52.20;;;;;;8365387;28;20052;-54
2023/12/16 07:02:24;;;;;;;0.80;0.73;;;18.80;52.20;;;;;;8364909;28;20060;-54
2023/12/16 07:06:25;;;;;;;1.20;1.10;;;18.80;52.10;;;;;;8364950;28;20044;-54
2023/12/16 07:10:26;;;;;;;0.80;0.70;;;18.80;52.10;;;;;;8364900;28;20686;-55
2023/12/16 07:14:28;;;;;;;0.75;0.75;;;18.90;52.10;;;;;;8364745;28;20029;-55
2023/12/16 07:18:29;;;;;;;0.80;0.77;;;18.80;52.10;;;;;;8364668;28;20033;-55
2023/12/16 07:22:30;;;;;;;1.33;0.85;;;18.80;52.10;;;;;;8364539;28;20090;-50
2023/12/16 07:26:31;;;;;;;0.60;0.60;;;18.80;52.10;;;;;;8364406;28;20032;-51
2023/12/16 07:30:32;;;;;;;0.70;0.70;;;18.80;52.10;;;;;;8364067;28;20090;-50
2023/12/16 07:34:33;;;;;;;1.20;0.90;;;18.90;52.70;;;;;;8364102;28;20044;-50
2023/12/16 07:38:33;;;;;;;0.80;0.80;;;18.80;52.10;;;;;;8363955;28;20052;-51
2023/12/16 07:42:36;;;;;;;0.95;0.88;;;18.80;52.10;;;;;;8363780;28;20032;-49
2023/12/16 07:46:40;;;;;;;0.88;0.80;;;18.90;52.10;;;;;;8363705;28;20063;-52
2023/12/16 07:50:41;;;;;;;0.80;0.80;;;18.90;52.10;;;;;;8363490;28;20495;-51
2023/12/16 07:54:42;;;;;;;1.10;0.75;;;18.90;52.00;;;;;;8363454;28;20395;-52
2023/12/16 07:58:43;;;;;;;0.75;0.70;;;18.90;52.00;;;;;;8363336;28;20055;-52
2023/12/16 08:02:43;;;;;;;0.85;0.65;;;18.90;52.00;;;;;;8363628;28;20529;-51
2023/12/16 08:06:44;;;;;;;0.68;0.57;;;18.90;52.00;;;;;;8363099;28;20033;-52
2023/12/16 08:10:45;;;;;;;0.82;0.63;;;18.90;52.00;;;;;;8362928;28;20033;-50
2023/12/16 08:14:46;;;;;;;0.70;0.70;;;18.90;52.00;;;;;;8362605;28;20033;-52
2023/12/16 08:18:46;;;;;;;0.98;0.88;;;18.90;52.00;;;;;;8362931;28;20479;-50
2023/12/16 08:22:47;;;;;;;1.20;1.10;;;18.90;52.00;;;;;;8362512;28;20118;-50
2023/12/16 08:26:49;;;;;;;0.75;0.75;;;18.90;52.00;;;;;;8362245;28;20109;-50
2023/12/16 08:30:50;;;;;;;1.27;0.85;;;18.90;52.00;;;;;;8362317;28;20033;-51
2023/12/16 08:34:51;;;;;;;1.00;0.70;;;18.90;52.00;;;;;;8362040;28;20513;-51
2023/12/16 08:38:51;;;;;;;0.70;0.63;;;18.90;52.00;;;;;;8361489;28;20460;-51
2023/12/16 08:42:52;;;;;;;1.42;0.82;;;18.90;52.00;;;;;;8361510;28;20037;-51
2023/12/16 08:46:53;;;;;;;0.90;0.73;;;18.90;52.00;;;;;;8361789;28;20398;-51
2023/12/16 08:50:56;;;;;;;0.82;0.73;;;18.90;52.00;;;;;;8361765;28;20041;-52
2023/12/16 08:54:57;;;;;;;0.90;0.90;;;18.90;52.00;;;;;;8361287;28;20099;-52
2023/12/16 08:58:58;;;;;;;0.70;0.70;;;18.90;52.50;;;;;;8361282;28;20032;-51
2023/12/16 09:02:59;;;;;;;0.90;0.80;;;18.90;52.00;;;;;;8361312;28;20138;-53
2023/12/16 09:06:59;;;;;;;0.60;0.60;;;18.90;52.00;;;;;;8360973;28;20029;-53
2023/12/16 09:11:00;;;;;;;0.70;0.70;;;18.90;51.90;;;;;;8360848;28;20496;-49
2023/12/16 09:15:01;;;;;;;0.90;0.80;;;18.90;51.90;;;;;;8360920;28;20127;-49
2023/12/16 09:19:03;;;;;;;0.85;0.80;;;18.90;51.90;;;;;;8360671;28;20033;-51
2023/12/16 09:23:04;;;;;;;0.95;0.70;;;18.90;51.90;;;;;;8361075;28;20021;-49
2023/12/16 09:27:05;;;;;;;1.30;0.90;;;18.90;51.90;;;;;;8360466;28;20068;-53
2023/12/16 09:31:06;;;;;;;0.95;0.70;;;18.90;51.90;;;;;;8360464;28;20033;-52
2023/12/16 09:35:07;;;;;;;1.33;1.10;;;18.90;51.90;;;;;;8360332;28;20517;-52
2023/12/16 09:39:10;;;;;;;1.55;0.80;;;18.90;51.90;;;;;;8359958;28;20053;-52
2023/12/16 09:43:17;;;;;;;1.05;0.88;;;18.90;51.90;;;;;;8360488;28;20111;-50
2023/12/16 09:47:18;;;;;;;1.00;0.80;;;18.90;51.90;;;;;;8360178;28;20029;-48
2023/12/16 09:51:20;;;;;;;1.50;0.90;;;18.90;51.90;;;;;;8358930;28;20044;-47
2023/12/16 09:55:20;;;;;;;1.13;0.80;;;18.90;51.90;;;;;;8360100;28;20036;-49
2023/12/16 09:59:23;;;;;;;1.00;0.90;;;18.90;51.90;;;;;;8359877;28;20029;-49
2023/12/16 10:03:24;;;;;;;1.10;0.90;;;18.90;51.90;;;;;;8360134;28;20036;-49
2023/12/16 10:07:25;;;;;;;1.02;0.90;;;18.90;51.90;;;;;;8359739;28;20033;-48
2023/12/16 10:11:26;;;;;;;0.90;0.90;;;18.90;51.90;;;;;;8359743;28;20119;-47
2023/12/16 10:15:32;;;;;;;0.90;0.80;;;18.90;52.00;;;;;;8359707;28;20037;-48
2023/12/16 10:19:32;;;;;;;0.80;0.80;;;18.90;52.00;;;;;;8359837;28;20039;-48
2023/12/16 10:23:36;;;;;;;1.13;0.80;;;18.90;52.00;;;;;;8360670;28;20029;-48
2023/12/16 10:27:41;;;;;;;1.25;0.95;;;18.90;51.90;;;;;;8359467;28;20075;-48
2023/12/16 10:31:42;;;;;;;0.90;0.77;;;18.90;51.90;;;;;;8359768;28;20040;-49
2023/12/16 10:35:43;;;;;;;0.85;0.68;;;18.90;51.90;;;;;;8359424;28;20105;-50
2023/12/16 10:39:43;;;;;;;0.82;0.70;;;18.90;51.90;;;;;;8359045;28;20056;-48
2023/12/16 10:43:44;;;;;;;1.13;0.82;;;18.90;51.90;;;;;;8359284;28;20033;-48
2023/12/16 10:47:49;;;;;;;1.13;0.73;;;18.90;52.00;;;;;;8359162;28;20041;-48
2023/12/16 10:51:54;;;;;;;0.70;0.70;;;18.90;51.90;;;;;;8359002;28;20072;-50
2023/12/16 10:56:02;;;;;;;0.90;0.80;;;18.90;51.90;;;;;;8358855;28;20032;-51
2023/12/16 11:00:07;;;;;;;0.90;0.85;;;19.00;52.00;;;;;;8358834;28;20029;-53
2023/12/16 11:04:13;;;;;;;0.75;0.65;;;18.90;52.00;;;;;;8362000;28;20099;-51
2023/12/16 11:08:15;;;;;;;1.00;0.90;;;19.00;52.00;;;;;;8365022;28;20112;-51
2023/12/16 11:12:17;;;;;;;0.90;0.77;;;18.90;52.00;;;;;;8364722;28;20482;-53
2023/12/16 11:16:57;;;;;;;1.23;0.80;;;18.90;52.00;;;;;;8364645;28;20033;-52
2023/12/16 11:21:04;;;;;;;1.20;1.00;;;18.90;52.00;;;;;;8361317;28;20488;-51
2023/12/16 11:25:16;;;;;;;1.00;0.82;;;18.90;52.00;;;;;;8364331;28;20394;-52
2023/12/16 11:29:21;;;;;;;0.70;0.70;;;18.90;52.00;;;;;;8364026;28;20100;-51
2023/12/16 11:33:22;;;;;;;0.75;0.75;;;18.90;52.00;;;;;;8364082;28;20032;-51
2023/12/16 11:37:34;;;;;;;1.02;0.93;;;19.00;52.00;;;;;;8363620;28;20106;-51
2023/12/16 11:41:35;;;;;;;0.80;0.80;;;18.90;51.90;;;;;;8363703;28;20033;-51
2023/12/16 11:45:42;;;;;;;1.48;1.00;;;18.90;52.00;;;;;;8363587;28;20514;-51
2023/12/16 11:49:43;;;;;;;0.98;0.70;;;19.00;52.10;;;;;;8363394;28;20029;-52
2023/12/16 11:53:44;;;;;;;0.90;0.73;;;19.00;52.00;;;;;;8363347;28;20033;-52
2023/12/16 11:57:48;;;;;;;1.08;0.88;;;19.00;52.00;;;;;;8363341;28;20025;-50
2023/12/16 12:01:50;;;;;;;0.70;0.70;;;18.90;52.00;;;;;;8363226;28;20045;-52
2023/12/16 12:05:50;;;;;;;1.35;1.00;;;18.90;52.00;;;;;;8363152;28;20059;-54
2023/12/16 12:09:51;;;;;;;1.00;0.80;;;18.90;51.90;;;;;;8362806;28;20035;-55
2023/12/16 12:13:52;;;;;;;0.73;0.70;;;18.90;52.00;;;;;;8362242;28;20037;-54
2023/12/16 12:17:53;;;;;;;;;;;18.90;51.90;;;;;;8363010;28;20032;-53
2023/12/16 12:21:54;;;;;;;1.10;0.83;;;18.90;51.90;;;;;;8362477;28;20427;-54
2023/12/16 12:25:55;;;;;;;;;;;18.90;52.00;;;;;;8362895;28;20271;-54
2023/12/16 12:29:57;;;;;;;0.80;0.80;;;18.90;51.90;;;;;;8362553;28;20012;-54
2023/12/16 12:33:58;;;;;;;0.80;0.80;;;18.90;52.00;;;;;;8362292;28;20045;-55
2023/12/16 12:37:59;;;;;;;0.90;0.90;;;18.90;52.00;;;;;;8361840;28;20071;-54
2023/12/16 12:42:01;;;;;;;;;;;18.90;52.00;;;;;;8362500;28;20029;-54
2023/12/16 12:46:07;;;;;;;1.42;1.08;;;18.90;52.00;;;;;;8361944;28;19909;-54
2023/12/16 12:50:27;;;;;;;1.10;1.00;;;18.90;52.00;;;;;;8361753;28;20075;-55
2023/12/16 12:54:42;;;;;;;1.35;1.17;;;19.00;52.00;;;;;;8361430;28;20087;-55
2023/12/16 12:58:43;;;;;;;1.63;1.15;;;18.90;52.00;;;;;;8331785;28;20045;-52
2023/12/16 13:02:43;;;;;;;1.90;1.33;;;18.90;51.90;;;;;;8328730;28;20041;-55
2023/12/16 13:06:44;;;;;;;4.25;1.40;;;19.00;51.80;;;;;;8328300;28;20112;-54
2023/12/16 13:10:46;;;;;;;1.55;1.15;;;19.00;51.70;;;;;;8326328;28;20040;-52
2023/12/16 13:14:47;;;;;;;4.50;1.65;;;19.00;51.70;;;;;;8341492;28;20940;-48
2023/12/16 13:18:52;;;;;;;7.43;2.03;;;19.10;51.80;;;;;;8340860;28;20057;-49
2023/12/16 13:22:53;;;;;;;2.83;1.90;;;19.10;51.80;;;;;;8332802;28;20084;-51
2023/12/16 13:26:53;;;;;;;5.68;2.55;;;19.10;51.90;;;;;;8353813;28;20379;-49
2023/12/16 13:30:54;;;;;;;3.67;2.25;;;19.10;51.90;;;;;;8360503;28;20033;-49
2023/12/16 13:34:55;;;;;;;5.88;2.10;;;19.10;51.90;;;;;;8337533;28;20100;-51
2023/12/16 13:38:55;;;;;;;3.25;2.15;;;19.10;51.80;;;;;;8327143;28;20107;-49
2023/12/16 13:42:56;;;;;;;5.95;2.35;;;19.20;51.90;;;;;;8327445;28;20043;-51
2023/12/16 13:46:57;;;;;;;5.28;2.72;;;19.20;51.90;;;;;;8327265;28;20113;-51
2023/12/16 13:50:58;;;;;;;5.65;2.35;;;19.20;51.90;;;;;;8327004;28;20037;-51
2023/12/16 13:54:58;;;;;;;5.32;2.33;;;19.20;51.80;;;;;;8326893;28;20042;-49
2023/12/16 13:58:59;;;;;;;7.55;2.45;;;19.20;51.70;;;;;;8354307;28;20708;-49
2023/12/16 14:03:00;;;;;;;3.13;1.95;;;19.20;51.80;;;;;;8346165;28;20082;-51
2023/12/16 14:07:01;;;;;;;6.80;2.60;;;19.30;51.90;;;;;;8353688;28;20029;-48
2023/12/16 14:11:02;;;;;;;6.82;2.30;;;19.20;51.90;;;;;;8355698;28;20040;-50
2023/12/16 14:15:03;;;;;;;4.95;2.72;;;19.10;51.90;;;;;;8339527;28;20410;-51
2023/12/16 14:19:04;;;;;;;2.92;1.92;;;19.10;52.00;;;;;;8353100;28;20037;-50
2023/12/16 14:23:05;;;;;;;6.63;2.30;;;19.10;52.10;;;;;;8359793;28;20078;-52
2023/12/16 14:27:06;;;;;;;5.03;2.70;;;19.10;52.10;;;;;;8340598;28;20025;-55
2023/12/16 14:31:07;;;;;;;8.90;3.13;;;19.10;52.10;;;;;;8358258;28;20489;-52
2023/12/16 14:35:10;;;;;;;5.50;2.55;;;19.10;52.50;;;;;;8355470;28;21666;-50
2023/12/16 14:39:10;;;;;;;6.53;2.55;;;19.20;52.30;;;;;;8329420;28;20557;-52
2023/12/16 14:43:11;;;;;;;6.35;2.30;;;19.20;52.70;;;;;;8332571;28;20429;-53
2023/12/16 14:47:12;;;;;;;3.88;2.17;;;19.20;53.20;;;;;;8331145;28;20041;-49
2023/12/16 14:51:13;;;;;;;21.38;3.53;;;19.30;53.30;;;;;;8343271;28;20041;-53
2023/12/16 14:55:13;;;;;;;16.85;5.88;;;19.30;53.10;;;;;;8360480;28;20102;-53
2023/12/16 14:59:14;;;;;;;25.75;7.45;;;19.30;53.50;;;;;;8364993;28;20033;-52
2023/12/16 15:03:15;;;;;;;15.95;6.55;;;19.30;53.40;;;;;;8362654;28;20363;-50
2023/12/16 15:07:15;;;;;;;27.00;8.52;;;19.30;53.50;;;;;;8331861;28;20030;-49
2023/12/16 15:11:16;;;;;;;22.55;7.35;;;19.30;54.60;;;;;;8331487;28;20053;-50
2023/12/16 15:15:18;;;;;;;19.63;7.43;;;19.30;55.30;;;;;;8332990;28;20034;-53
2023/12/16 15:19:19;;;;;;;20.00;7.28;;;19.30;54.00;;;;;;8329755;28;20039;-51
2023/12/16 15:23:20;;;;;;;17.60;6.50;;;19.40;54.20;;;;;;8338105;28;20028;-50
2023/12/16 15:27:20;;;;;;;20.17;6.80;;;19.40;54.20;;;;;;8351487;28;20029;-54
2023/12/16 15:31:21;;;;;;;18.73;6.32;;;19.40;54.00;;;;;;8348694;28;20056;-50
2023/12/16 15:35:22;;;;;;;24.83;6.55;;;19.50;54.30;;;;;;8349807;28;20505;-53
2023/12/16 15:39:24;;;;;;;19.73;6.78;;;19.60;54.50;;;;;;8357553;28;20116;-48
2023/12/16 15:43:25;;;;;;;14.82;6.00;;;19.60;55.10;;;;;;8353122;28;20037;-45
2023/12/16 15:47:25;;;;;;;18.17;5.85;;;19.60;55.10;;;;;;8350184;28;20116;-52
2023/12/16 15:51:26;;;;;;;15.35;5.80;;;19.60;54.60;;;;;;8351740;28;20049;-50
2023/12/16 15:55:27;;;;;;;18.48;6.05;;;19.70;54.70;;;;;;8332787;28;20109;-50
2023/12/16 15:59:28;;;;;;;16.65;5.60;;;19.70;55.00;;;;;;8362988;28;20036;-49
2023/12/16 16:03:30;;;;;;;12.00;5.90;;;19.70;55.10;;;;;;8356790;28;20075;-49
2023/12/16 16:07:31;;;;;;;15.27;6.00;;;19.80;55.20;;;;;;8359823;28;20513;-53
2023/12/16 16:11:32;;;;;;;17.52;6.22;;;19.70;54.60;;;;;;8352533;28;20441;-49
2023/12/16 16:15:33;;;;;;;;;;;19.70;54.50;;;;;;8348428;28;20046;-50
2023/12/16 16:19:34;;;;;;;20.13;6.00;;;19.80;54.80;;;;;;8346712;28;19915;-51
2023/12/16 16:23:35;;;;;;;20.65;6.13;;;19.80;54.40;;;;;;8351922;28;20053;-49
2023/12/16 16:27:36;;;;;;;18.45;5.68;;;19.80;54.30;;;;;;8346644;28;20091;-51
2023/12/16 16:31:37;;;;;;;14.30;4.95;;;19.80;54.40;;;;;;8348766;28;20033;-49
2023/12/16 16:35:38;;;;;;;16.88;6.03;;;19.80;54.30;;;;;;8360405;28;20110;-49
2023/12/16 16:39:40;;;;;;;16.50;5.68;;;19.90;55.40;;;;;;8343259;28;20200;-52
2023/12/16 16:43:41;;;;;;;13.45;4.60;;;19.90;55.50;;;;;;8344589;28;20041;-51
2023/12/16 16:47:41;;;;;;;14.82;5.05;;;20.00;55.60;;;;;;8352688;28;20034;-50
2023/12/16 16:51:43;;;;;;;16.33;5.43;;;20.00;55.70;;;;;;8333481;28;20033;-52
2023/12/16 16:55:45;;;;;;;12.48;5.28;;;20.00;55.50;;;;;;8352468;28;20033;-53
2023/12/16 16:59:46;;;;;;;19.90;4.88;;;20.00;56.50;;;;;;8333846;28;20487;-48
2023/12/16 17:03:47;;;;;;;13.98;4.82;;;20.10;56.20;;;;;;8356006;28;20387;-48
2023/12/16 17:07:48;;;;;;;16.42;5.10;;;20.10;55.90;;;;;;8363319;28;20033;-48
2023/12/16 17:11:49;;;;;;;16.45;4.43;;;20.10;55.90;;;;;;8350487;28;20131;-57
2023/12/16 17:15:50;;;;;;;21.15;5.55;;;20.10;55.60;;;;;;8339846;28;20075;-55
2023/12/16 17:19:51;;;;;;;17.85;5.05;;;20.20;55.60;;;;;;8329927;28;20046;-48
2023/12/16 17:23:51;;;;;;;15.82;5.57;;;20.20;55.90;;;;;;8335379;28;20048;-49
2023/12/16 17:27:52;;;;;;;16.38;5.10;;;20.20;55.60;;;;;;8353220;28;20033;-47
2023/12/16 17:31:53;;;;;;;10.98;4.50;;;20.30;55.70;;;;;;8343964;28;20042;-48
2023/12/16 17:35:55;;;;;;;13.43;5.45;;;20.30;55.60;;;;;;8331330;28;20048;-53
2023/12/16 17:39:57;;;;;;;11.93;4.32;;;20.30;55.40;;;;;;8328721;28;20483;-55
2023/12/16 17:43:59;;;;;;;9.02;4.55;;;20.30;55.60;;;;;;8330728;28;20506;-52
2023/12/16 17:48:00;;;;;;;9.18;4.05;;;20.30;55.80;;;;;;8338705;28;20037;-52
2023/12/16 17:52:04;;;;;;;8.70;4.50;;;20.30;55.60;;;;;;8361500;28;20123;-55
2023/12/16 17:56:05;;;;;;;7.07;3.90;;;20.30;55.20;;;;;;8361000;28;20029;-52
2023/12/16 18:00:09;;;;;;;10.57;4.40;;;20.30;55.40;;;;;;8360923;28;20040;-51
2023/12/16 18:04:10;;;;;;;12.40;4.95;;;20.30;55.70;;;;;;8340764;28;20041;-48
2023/12/16 18:08:10;;;;;;;13.02;4.53;;;20.30;55.70;;;;;;8359788;28;20041;-58
2023/12/16 18:12:11;;;;;;;19.13;4.60;;;20.30;55.60;;;;;;8353726;28;20041;-56
2023/12/16 18:16:12;;;;;;;13.68;4.55;;;20.30;55.50;;;;;;8339479;28;20034;-55
2023/12/16 18:20:13;;;;;;;13.68;3.95;;;20.30;55.50;;;;;;8334284;28;20034;-50
2023/12/16 18:24:14;;;;;;;10.38;3.92;;;20.20;55.60;;;;;;8359439;28;20395;-50
2023/12/16 18:28:14;;;;;;;9.82;4.20;;;20.20;55.50;;;;;;8361045;28;20615;-60
2023/12/16 18:32:16;;;;;;;10.88;4.45;;;20.20;55.50;;;;;;8337621;28;20132;-59
2023/12/16 18:36:17;;;;;;;6.80;4.10;;;20.20;55.70;;;;;;8352972;28;20041;-58
2023/12/16 18:40:18;;;;;;;;;;;20.20;55.90;;;;;;8319710;28;1142539;-54
2023/12/16 18:44:19;;;;;;;9.40;3.50;;;20.20;55.50;;;;;;8361921;28;19917;-51
2023/12/16 18:48:21;;;;;;;9.30;3.55;;;20.10;55.40;;;;;;8338333;28;20522;-51
2023/12/16 18:52:21;;;;;;;9.88;3.90;;;20.10;55.30;;;;;;8347013;28;20057;-48
2023/12/16 18:56:22;;;;;;;10.40;3.55;;;20.00;55.30;;;;;;8360724;28;20483;-52
2023/12/16 19:00:23;;;;;;;13.43;4.07;;;19.90;55.40;;;;;;8347228;28;20075;-55
2023/12/16 19:04:24;;;;;;;12.25;4.18;;;19.90;54.60;;;;;;8343540;28;20041;-49
2023/12/16 19:08:24;;;;;;;9.70;4.00;;;20.00;54.70;;;;;;8344647;28;20049;-50
2023/12/16 19:12:25;;;;;;;11.38;4.30;;;19.90;54.90;;;;;;8357479;28;20498;-51
2023/12/16 19:16:26;;;;;;;17.90;5.03;;;19.80;54.70;;;;;;8345265;28;20059;-49
2023/12/16 19:25:24;;;;;;;12.52;4.00;;;19.80;55.00;;;;;;8345303;28;20360;-50
2023/12/16 19:29:25;;;;;;;13.48;3.92;;;19.90;55.20;;;;;;8362431;28;20478;-51
2023/12/16 19:33:26;;;;;;;11.98;4.32;;;19.90;55.10;;;;;;8336256;28;20524;-51
2023/12/16 19:37:27;;;;;;;10.25;3.50;;;19.90;54.90;;;;;;8329066;28;20144;-48
2023/12/16 19:41:27;;;;;;;9.10;3.67;;;20.00;54.70;;;;;;8329071;28;20407;-51
2023/12/16 19:45:28;;;;;;;6.95;3.60;;;20.00;54.60;;;;;;8329044;28;20037;-48
2023/12/16 19:49:29;;;;;;;6.55;4.00;;;20.10;54.80;;;;;;8328712;28;20037;-50
2023/12/16 19:53:29;;;;;;;9.60;4.38;;;20.00;54.60;;;;;;8337098;28;20522;-50
2023/12/16 19:57:30;;;;;;;9.10;3.88;;;20.00;54.80;;;;;;8348123;28;20033;-49
2023/12/16 20:01:31;;;;;;;9.00;4.53;;;20.00;54.70;;;;;;8365211;28;20035;-49
2023/12/16 20:05:31;;;;;;;9.65;4.03;;;20.00;54.80;;;;;;8367326;28;20045;-49
2023/12/16 20:09:32;;;;;;;11.80;3.95;;;20.10;54.70;;;;;;8369332;28;20390;-50
2023/12/16 20:13:34;;;;;;;25.67;4.65;;;20.10;54.60;;;;;;8387587;28;20059;-50
2023/12/16 20:17:35;;;;;;;12.00;3.72;;;20.10;54.70;;;;;;8380901;28;20048;-47
2023/12/16 20:21:36;;;;;;;7.75;3.95;;;20.10;54.50;;;;;;8362438;28;20044;-50
2023/12/16 20:25:36;;;;;;;6.15;3.50;;;20.10;54.80;;;;;;8342070;28;20026;-50
2023/12/16 20:29:37;;;;;;;12.65;4.10;;;20.10;54.50;;;;;;8334549;28;20037;-49
2023/12/16 20:33:38;;;;;;;6.53;3.28;;;20.10;54.60;;;;;;8328724;28;20068;-50
2023/12/16 20:37:39;;;;;;;6.07;3.10;;;20.10;54.60;;;;;;8330490;28;20069;-52
2023/12/16 20:46:17;;;;;;;7.53;2.92;;;20.10;54.60;;;;;;8340630;28;19916;-51
2023/12/16 20:50:20;;;;;;;8.43;3.47;;;20.10;54.60;;;;;;8358953;28;20707;-49
2023/12/16 20:54:21;;;;;;;7.18;3.45;;;20.10;54.50;;;;;;8349158;28;20414;-48
2023/12/16 20:58:22;;;;;;;11.55;4.15;;;20.10;55.20;;;;;;8371232;28;20029;-49
2023/12/16 21:02:23;;;;;;;5.43;2.88;;;20.10;54.70;;;;;;8369422;28;20438;-49